Terminal Aerodrome Forecast
Issued by NWS

Home | Current Version | Previous Version | Text Only | Print | Product List | Glossary On
Versions: 1 2 3 4 5 6 7 8 9 10 11 12 13 14 15 16 17 18 19
000
FTUS46 KLOX 042340
TAFSBA
TAF
KSBA 042340Z 0500/0524 27014KT P6SM SCT014
     FM050300 VRB03KT P6SM SKC
     FM050500 VRB03KT P6SM OVC006
     FM051500 13006KT P6SM OVC010
     FM051800 19007KT P6SM BKN014
     FM052000 24008KT P6SM SCT015
     FM052300 28014KT P6SM SKC=

USA.gov is the U.S. government's official web portal to all federal, state and local government web resources and services.